createdAt,value
2019-05-05T14:45:15.300Z,4.07
2019-05-05T14:47:44.295Z,4.10
2019-05-05T14:50:13.455Z,3.30
2019-05-05T14:52:43.989Z,3.95
2019-05-05T14:55:14.020Z,4.83
2019-05-05T14:57:44.083Z,4.57
2019-05-05T15:00:17.126Z,2.77
2019-05-05T15:02:46.145Z,2.70
2019-05-05T15:05:33.817Z,4.37
2019-05-05T15:08:14.825Z,6.50
2019-05-05T15:11:00.650Z,4.83
2019-05-05T15:13:29.418Z,21.50
2019-05-05T15:15:58.245Z,5.47
2019-05-05T15:18:26.989Z,3.90
2019-05-05T15:20:55.845Z,5.37
2019-05-05T15:23:24.705Z,4.10
2019-05-05T15:25:54.075Z,4.03
2019-05-05T15:28:24.529Z,7.17
2019-05-05T15:30:54.510Z,4.73
2019-05-05T15:33:24.369Z,4.87
2019-05-05T15:35:53.956Z,5.30
2019-05-05T15:38:24.409Z,5.90
2019-05-05T15:40:54.718Z,3.10
2019-05-05T15:43:24.364Z,4.73
2019-05-05T15:45:54.167Z,8.43
2019-05-05T15:48:23.327Z,5.57
2019-05-05T15:50:54.483Z,4.83
2019-05-05T15:53:23.491Z,3.80
2019-05-05T15:55:54.009Z,3.90
2019-05-05T15:58:23.611Z,3.83
2019-05-05T16:00:53.816Z,6.90
2019-05-05T16:03:22.919Z,12.20
2019-05-05T16:05:54.122Z,7.30
2019-05-05T16:08:22.810Z,5.80
2019-05-05T16:10:51.911Z,4.87
2019-05-05T16:13:20.984Z,7.93
2019-05-05T16:15:59.332Z,5.70
2019-05-05T16:18:46.261Z,6.47
2019-05-05T16:21:38.054Z,8.13
2019-05-05T16:24:16.320Z,5.33
2019-05-05T16:26:45.205Z,9.27
2019-05-05T16:29:14.832Z,10.30
2019-05-05T16:31:43.877Z,7.10
2019-05-05T16:34:14.239Z,6.30
2019-05-05T16:36:43.992Z,9.90
2019-05-05T16:39:13.847Z,8.13
2019-05-05T16:41:44.043Z,7.63
2019-05-05T16:44:15.563Z,10.77
2019-05-05T16:46:43.970Z,10.60
2019-05-05T16:49:14.041Z,7.77
2019-05-05T16:51:49.040Z,7.97
2019-05-05T16:54:24.801Z,8.00
2019-05-05T16:56:53.797Z,8.60
2019-05-05T16:59:23.730Z,8.83
2019-05-05T17:01:54.114Z,9.20
2019-05-05T17:04:24.334Z,10.60
2019-05-05T17:06:54.671Z,9.43
2019-05-05T17:09:24.208Z,8.83
2019-05-05T17:12:18.439Z,7.30
2019-05-05T17:15:21.572Z,7.30
2019-05-05T17:17:59.307Z,10.13
2019-05-05T17:20:30.143Z,8.90
2019-05-05T17:23:05.014Z,11.07
2019-05-05T17:25:35.354Z,9.37
2019-05-05T17:28:04.623Z,8.70
2019-05-05T17:30:34.180Z,6.93
2019-05-05T17:33:03.784Z,11.07
2019-05-05T17:35:33.725Z,6.33
2019-05-05T17:38:11.291Z,10.77
2019-05-05T17:40:58.193Z,11.07
2019-05-05T17:43:45.253Z,10.93
2019-05-05T17:46:27.978Z,8.77
2019-05-05T17:49:07.698Z,7.60
2019-05-05T17:52:05.365Z,9.33
2019-05-05T17:54:55.799Z,10.30
2019-05-05T17:57:24.666Z,9.77
2019-05-05T17:59:53.885Z,12.57
2019-05-05T18:02:23.700Z,10.40
2019-05-05T18:04:54.113Z,8.17
2019-05-05T18:07:28.229Z,8.43
2019-05-05T18:10:19.205Z,6.63
2019-05-05T18:13:09.875Z,7.07
2019-05-05T18:15:55.918Z,6.67
2019-05-05T18:18:25.055Z,9.03
2019-05-05T18:20:54.312Z,7.17
2019-05-05T18:23:23.485Z,9.10
2019-05-05T18:25:52.347Z,8.57
2019-05-05T18:28:21.239Z,5.73
2019-05-05T18:30:51.270Z,7.80
2019-05-05T18:33:21.824Z,8.20
2019-05-05T18:35:50.992Z,10.43
2019-05-05T18:38:19.771Z,7.10
2019-05-05T18:40:49.491Z,10.07
2019-05-05T18:43:24.468Z,7.97
2019-05-05T18:46:04.635Z,10.57
2019-05-05T18:48:34.561Z,9.00
2019-05-05T18:51:03.962Z,8.53
2019-05-05T18:53:34.135Z,11.50
2019-05-05T18:56:03.746Z,8.73
2019-05-05T18:58:35.106Z,9.27
2019-05-05T19:01:27.971Z,13.40
2019-05-05T19:04:28.320Z,7.50
2019-05-05T19:07:10.394Z,12.90
2019-05-05T19:09:51.136Z,11.60
2019-05-05T19:12:10.328Z,10.97
2019-05-05T19:14:39.199Z,11.53
2019-05-05T19:17:08.062Z,9.73
2019-05-05T19:19:38.418Z,10.10
2019-05-05T19:22:09.761Z,10.57
2019-05-05T19:24:38.494Z,14.23
2019-05-05T19:27:07.236Z,12.77
2019-05-05T19:29:36.038Z,11.97
2019-05-05T19:32:04.920Z,9.23
2019-05-05T19:34:35.394Z,9.57
2019-05-05T19:37:04.196Z,9.47
2019-05-05T19:39:34.463Z,11.67
2019-05-05T19:42:04.804Z,11.00
2019-05-05T19:44:33.895Z,8.53
2019-05-05T19:47:09.844Z,11.60
2019-05-05T19:49:40.221Z,10.73
2019-05-05T19:52:08.980Z,10.53
2019-05-05T19:54:41.043Z,12.80
2019-05-05T19:57:09.743Z,8.27
2019-05-05T19:59:38.544Z,12.00
2019-05-05T20:02:08.192Z,10.83
2019-05-05T20:04:36.935Z,14.70
2019-05-05T20:07:05.756Z,10.23
2019-05-05T20:09:34.483Z,12.03
2019-05-05T20:12:04.014Z,11.50
2019-05-05T20:14:34.210Z,10.23
2019-05-05T20:17:11.495Z,13.90
2019-05-05T20:19:44.096Z,11.27
2019-05-05T20:22:14.584Z,14.13
2019-05-05T20:24:44.406Z,17.40
2019-05-05T20:27:14.089Z,18.50
2019-05-05T20:29:42.897Z,17.07
2019-05-05T20:32:13.935Z,14.67
2019-05-05T20:35:07.931Z,10.63
2019-05-05T20:37:42.050Z,12.53
2019-05-05T20:40:14.572Z,16.00
2019-05-05T20:42:44.752Z,12.10
2019-05-05T20:45:16.319Z,12.80
2019-05-05T20:47:45.057Z,12.23
2019-05-05T20:50:13.946Z,13.60
2019-05-05T20:52:44.231Z,13.57
2019-05-05T20:55:14.103Z,14.07
2019-05-05T20:57:44.296Z,10.97
2019-05-05T21:00:15.709Z,17.97
2019-05-05T21:02:44.524Z,9.97
2019-05-05T21:05:14.599Z,14.87
2019-05-05T21:07:44.379Z,12.50
2019-05-05T21:10:14.433Z,13.67
2019-05-05T21:12:45.552Z,11.47
2019-05-05T21:15:14.437Z,13.10
2019-05-05T21:17:44.963Z,12.27
2019-05-05T21:20:14.543Z,16.40
2019-05-05T21:23:03.672Z,13.07
2019-05-05T21:25:34.709Z,11.20
2019-05-05T21:28:03.910Z,12.63
2019-05-05T21:30:33.739Z,11.87
2019-05-05T21:33:04.375Z,11.40
2019-05-05T21:35:34.888Z,12.40
2019-05-05T21:38:04.699Z,10.90
2019-05-05T21:40:34.637Z,13.77
2019-05-05T21:43:04.930Z,11.83
2019-05-05T21:45:34.723Z,13.77
2019-05-05T21:48:04.455Z,12.90
2019-05-05T21:50:41.659Z,11.30
2019-05-05T21:53:15.802Z,12.03
2019-05-05T21:56:04.215Z,11.77
2019-05-05T21:58:43.813Z,12.57
2019-05-05T22:01:15.489Z,13.47
2019-05-05T22:03:44.527Z,13.30
2019-05-05T22:06:14.642Z,13.03
2019-05-05T22:08:43.656Z,9.60
2019-05-05T22:11:14.116Z,10.40
2019-05-05T22:13:44.238Z,13.27
2019-05-05T22:16:13.719Z,10.30
2019-05-05T22:18:44.705Z,11.03
2019-05-05T22:21:43.571Z,12.23
2019-05-05T22:24:19.146Z,11.43
2019-05-05T22:26:47.876Z,15.00
2019-05-05T22:29:17.334Z,13.30
2019-05-05T22:31:46.226Z,11.37
2019-05-05T22:34:15.008Z,9.90
2019-05-05T22:36:44.906Z,13.20
2019-05-05T22:39:16.443Z,11.33
2019-05-05T22:41:44.725Z,12.30
2019-05-05T22:44:14.067Z,10.93
2019-05-05T22:46:42.878Z,12.33
2019-05-05T22:49:11.716Z,14.27
2019-05-05T22:51:44.673Z,12.17
2019-05-05T22:54:14.898Z,14.00
2019-05-05T22:56:44.807Z,18.07
2019-05-05T22:59:14.028Z,10.37
2019-05-05T23:01:42.914Z,14.67
2019-05-05T23:04:20.148Z,8.57
2019-05-05T23:06:54.217Z,15.20
2019-05-05T23:09:23.000Z,13.03
2019-05-05T23:11:51.697Z,10.37
2019-05-05T23:14:29.833Z,11.63
2019-05-05T23:17:17.872Z,10.87
2019-05-05T23:19:53.872Z,12.80
2019-05-05T23:22:48.098Z,12.77
2019-05-05T23:25:24.186Z,12.40
2019-05-05T23:27:54.742Z,15.70
2019-05-05T23:30:37.661Z,12.50
2019-05-05T23:32:54.943Z,12.93
2019-05-05T23:35:24.143Z,9.60
2019-05-05T23:37:55.059Z,16.17
2019-05-05T23:40:27.290Z,15.53
2019-05-05T23:42:56.067Z,13.53
2019-05-05T23:45:25.202Z,12.00
2019-05-05T23:47:54.580Z,12.37
2019-05-05T23:50:23.692Z,12.83
2019-05-05T23:52:54.518Z,11.17
2019-05-05T23:55:23.941Z,17.00
2019-05-05T23:57:54.693Z,16.47
